Time;durP1;ratioP1;P1;durP2;ratioP2;P2;SDS_P1;SDS_P2;PMS_P1;PMS_P2;Temp;Humidity;BMP_temperature;BMP_pressure;BME280_temperature;BME280_humidity;BME280_pressure;Samples;Min_cycle;Max_cycle;Signal;HPM_P1;HPM_P2
2022/12/27 09:01:13;;;;;;;2.40;0.97;;;5.90;99.90;;;;;;4882879;23;20238;-72
2022/12/27 09:03:40;;;;;;;3.10;0.93;;;6.10;99.90;;;;;;4877624;29;20223;-74
2022/12/27 09:06:08;;;;;;;1.77;0.90;;;6.10;99.90;;;;;;4878511;29;20238;-73
2022/12/27 09:08:35;;;;;;;4.23;1.00;;;6.10;99.90;;;;;;4872667;29;20230;-75
2022/12/27 09:11:08;;;;;;;5.80;1.10;;;6.30;99.90;;;;;;4861588;29;20223;-73
2022/12/27 09:13:35;;;;;;;2.60;0.90;;;6.30;99.90;;;;;;4860982;29;20208;-72
2022/12/27 09:16:05;;;;;;;6.90;0.93;;;6.30;99.90;;;;;;4860543;29;20212;-72
2022/12/27 09:18:34;;;;;;;4.10;1.60;;;6.30;99.90;;;;;;4875593;29;20268;-74
2022/12/27 09:21:08;;;;;;;1.97;0.93;;;6.30;99.90;;;;;;4897282;29;20225;-72
2022/12/27 09:23:36;;;;;;;2.30;0.80;;;6.20;99.90;;;;;;4898091;29;20580;-71
2022/12/27 09:26:07;;;;;;;3.33;0.80;;;6.20;99.90;;;;;;4897631;29;20230;-74
2022/12/27 09:28:35;;;;;;;4.83;1.20;;;6.10;99.90;;;;;;4881777;29;20600;-74
2022/12/27 09:31:02;;;;;;;3.57;1.00;;;6.20;99.90;;;;;;4879263;29;20215;-74
2022/12/27 09:33:29;;;;;;;4.07;0.77;;;6.20;99.90;;;;;;4878884;29;20218;-73
2022/12/27 09:36:03;;;;;;;2.10;1.00;;;6.20;99.90;;;;;;4876243;29;20568;-70
2022/12/27 09:38:30;;;;;;;5.03;0.90;;;6.30;99.90;;;;;;4877072;29;20717;-73
2022/12/27 09:40:59;;;;;;;4.00;0.87;;;6.20;99.90;;;;;;4878057;29;20359;-73
2022/12/27 09:43:38;;;;;;;2.47;0.73;;;6.20;99.90;;;;;;4877071;29;20225;-73
2022/12/27 09:46:10;;;;;;;3.60;0.90;;;6.30;99.90;;;;;;4875673;29;20739;-73
2022/12/27 09:48:39;;;;;;;2.60;0.67;;;6.40;99.90;;;;;;4877258;29;20235;-73
2022/12/27 09:51:13;;;;;;;8.13;0.93;;;6.40;99.90;;;;;;4876392;29;20214;-73
2022/12/27 09:53:45;;;;;;;6.67;1.30;;;6.60;99.90;;;;;;4876124;29;20211;-73
2022/12/27 09:56:14;;;;;;;4.37;0.67;;;6.70;99.90;;;;;;4876928;29;20214;-72
2022/12/27 09:58:48;;;;;;;2.73;1.00;;;6.80;99.90;;;;;;4876778;29;20235;-71
2022/12/27 10:01:23;;;;;;;8.50;0.87;;;6.90;99.90;;;;;;4877083;29;20226;-67
2022/12/27 10:03:51;;;;;;;5.17;0.87;;;6.90;99.90;;;;;;4891365;29;20216;-68
2022/12/27 10:06:34;;;;;;;9.77;1.00;;;6.90;99.90;;;;;;4876338;29;20703;-73
2022/12/27 10:09:10;;;;;;;3.37;0.87;;;6.90;99.90;;;;;;4876870;29;20958;-74
2022/12/27 10:11:45;;;;;;;2.97;0.87;;;6.80;99.90;;;;;;4877272;29;20218;-71
2022/12/27 10:14:24;;;;;;;2.70;0.90;;;6.90;99.90;;;;;;4880339;29;20570;-69
2022/12/27 10:16:59;;;;;;;2.27;0.77;;;7.00;99.90;;;;;;4880461;29;20238;-72
2022/12/27 10:19:35;;;;;;;2.77;0.80;;;7.10;99.90;;;;;;4880468;29;20562;-71
2022/12/27 10:22:16;;;;;;;4.30;0.90;;;7.20;99.90;;;;;;4882204;29;20269;-73
2022/12/27 10:24:47;;;;;;;4.27;0.80;;;7.10;99.90;;;;;;4882494;29;20211;-71
2022/12/27 10:27:16;;;;;;;1.73;0.77;;;7.20;99.90;;;;;;4881720;29;20247;-72
2022/12/27 10:29:43;;;;;;;3.13;0.60;;;7.30;99.90;;;;;;4881856;29;20207;-71
2022/12/27 10:32:13;;;;;;;2.80;0.80;;;7.40;99.90;;;;;;4878054;29;20211;-72
2022/12/27 10:34:40;;;;;;;1.93;0.70;;;7.40;99.90;;;;;;4881186;29;20294;-71
2022/12/27 10:37:10;;;;;;;6.20;1.10;;;7.50;99.90;;;;;;4881639;29;20425;-75
2022/12/27 10:39:37;;;;;;;1.60;0.53;;;7.50;99.90;;;;;;4877276;29;20321;-69
2022/12/27 10:42:13;;;;;;;2.30;0.73;;;7.60;99.90;;;;;;4882583;29;20215;-77
2022/12/27 10:44:40;;;;;;;3.70;1.20;;;7.60;99.90;;;;;;4887866;29;20206;-69
2022/12/27 10:47:08;;;;;;;1.40;0.80;;;7.70;99.90;;;;;;4900335;29;20238;-72
2022/12/27 10:49:36;;;;;;;2.17;0.90;;;7.60;99.90;;;;;;4886210;29;20211;-74
2022/12/27 10:52:10;;;;;;;0.80;0.50;;;7.50;99.90;;;;;;4881785;29;20211;-72
2022/12/27 10:54:51;;;;;;;2.17;0.90;;;7.60;99.90;;;;;;4881515;29;20569;-73
2022/12/27 10:57:25;;;;;;;5.77;1.13;;;7.70;99.90;;;;;;4887260;29;20230;-70
2022/12/27 11:00:16;;;;;;;4.83;0.97;;;7.90;99.90;;;;;;4881848;29;20226;-69
2022/12/27 11:02:51;;;;;;;2.83;0.93;;;8.00;99.90;;;;;;4879163;29;20215;-76
2022/12/27 11:05:22;;;;;;;5.03;0.80;;;8.00;99.90;;;;;;4884858;29;20207;-67
2022/12/27 11:07:51;;;;;;;6.53;0.93;;;8.10;99.90;;;;;;4879520;29;20583;-74
2022/12/27 11:10:20;;;;;;;3.97;0.83;;;8.10;99.90;;;;;;4879666;29;20211;-70
2022/12/27 11:12:58;;;;;;;9.50;1.10;;;8.20;99.90;;;;;;4879956;29;20226;-74
2022/12/27 11:15:27;;;;;;;1.27;0.80;;;8.20;99.90;;;;;;4879727;29;20246;-70
2022/12/27 11:17:57;;;;;;;5.63;0.90;;;8.10;99.90;;;;;;4879555;29;20231;-69
2022/12/27 11:20:28;;;;;;;1.93;0.80;;;7.90;99.90;;;;;;4880096;29;20237;-74
2022/12/27 11:22:59;;;;;;;3.03;0.73;;;8.00;99.90;;;;;;4879936;29;20674;-74
2022/12/27 11:25:27;;;;;;;2.73;1.13;;;8.00;99.90;;;;;;4878721;29;20497;-73
2022/12/27 11:27:56;;;;;;;2.63;0.80;;;8.10;99.90;;;;;;4879488;29;20243;-82
2022/12/27 11:30:27;;;;;;;5.27;1.03;;;8.10;99.90;;;;;;4879950;29;20574;-76
2022/12/27 11:32:54;;;;;;;2.47;1.07;;;8.20;99.90;;;;;;4881282;29;20219;-75
2022/12/27 11:35:34;;;;;;;1.70;0.83;;;8.20;99.90;;;;;;4894705;29;20759;-72
2022/12/27 11:38:03;;;;;;;2.97;0.80;;;8.30;99.90;;;;;;4879169;29;20235;-74
2022/12/27 11:40:33;;;;;;;1.07;0.70;;;8.50;99.90;;;;;;4879534;29;20214;-74
2022/12/27 11:43:05;;;;;;;2.10;0.90;;;8.70;99.90;;;;;;4879565;29;20215;-74
2022/12/27 11:45:37;;;;;;;6.40;0.97;;;8.80;99.90;;;;;;4879351;29;20217;-69
2022/12/27 11:48:14;;;;;;;2.97;0.87;;;8.90;99.90;;;;;;4880188;29;20243;-72
2022/12/27 11:50:56;;;;;;;5.80;1.10;;;8.80;99.90;;;;;;4880523;29;20217;-68
2022/12/27 11:54:04;;;;;;;4.97;0.63;;;8.90;99.90;;;;;;4880551;29;20207;-73
2022/12/27 11:56:34;;;;;;;4.60;1.00;;;9.00;99.90;;;;;;4880106;29;20215;-72
2022/12/27 11:59:30;;;;;;;4.73;0.97;;;9.00;99.90;;;;;;4880193;29;20211;-72
2022/12/27 12:02:33;;;;;;;2.03;0.70;;;8.90;99.90;;;;;;4880570;29;20215;-72
2022/12/27 12:05:38;;;;;;;0.60;0.40;;;8.90;99.90;;;;;;4880817;29;20678;-70
2022/12/27 12:08:39;;;;;;;4.23;0.83;;;9.00;99.90;;;;;;4880310;29;20246;-72
2022/12/27 12:11:18;;;;;;;5.30;0.90;;;9.10;99.90;;;;;;4880132;29;20690;-73
2022/12/27 12:14:07;;;;;;;2.10;0.77;;;9.10;99.90;;;;;;4879979;29;20207;-73
2022/12/27 12:17:31;;;;;;;3.20;0.80;;;9.10;99.90;;;;;;4880230;29;20238;-71
2022/12/27 12:20:11;;;;;;;3.40;0.83;;;9.10;99.90;;;;;;4795859;29;20213;-71
2022/12/27 12:22:53;;;;;;;4.13;1.50;;;9.10;99.90;;;;;;4871157;29;20211;-72
2022/12/27 12:25:44;;;;;;;3.23;1.00;;;9.30;99.90;;;;;;4880148;29;20207;-72
2022/12/27 12:28:50;;;;;;;3.37;0.90;;;9.30;99.90;;;;;;4879857;29;20250;-70
2022/12/27 12:31:39;;;;;;;4.87;0.80;;;9.30;99.90;;;;;;4863306;29;20215;-72
2022/12/27 12:34:22;;;;;;;1.53;0.77;;;9.20;99.90;;;;;;4879239;29;20218;-73
2022/12/27 12:37:15;;;;;;;2.33;0.73;;;9.20;99.90;;;;;;4879485;29;20219;-70
2022/12/27 12:40:03;;;;;;;2.70;0.70;;;9.30;99.90;;;;;;4879810;29;20215;-72
2022/12/27 12:42:40;;;;;;;1.90;1.00;;;9.20;99.90;;;;;;4879553;29;20218;-71
2022/12/27 12:45:35;;;;;;;4.83;0.60;;;9.30;99.90;;;;;;4879679;29;20213;-72
2022/12/27 12:48:18;;;;;;;6.43;0.90;;;9.40;99.90;;;;;;4879401;29;20257;-72
2022/12/27 12:51:05;;;;;;;3.07;1.20;;;9.40;99.90;;;;;;4874981;29;20220;-77
2022/12/27 12:53:47;;;;;;;3.13;0.70;;;9.30;99.90;;;;;;4880315;29;20222;-74
2022/12/27 12:56:31;;;;;;;3.47;0.60;;;9.20;99.90;;;;;;4886702;29;20508;-76
2022/12/27 12:59:08;;;;;;;1.47;0.63;;;9.10;99.90;;;;;;4898169;29;20226;-73
2022/12/27 13:01:52;;;;;;;2.27;0.87;;;9.10;99.90;;;;;;4897883;29;20218;-73
2022/12/27 13:04:37;;;;;;;6.20;0.67;;;9.10;99.90;;;;;;4898183;29;20712;-72
2022/12/27 13:07:32;;;;;;;2.00;0.70;;;9.10;99.90;;;;;;4897949;29;20242;-73
2022/12/27 13:10:29;;;;;;;4.23;0.53;;;9.10;99.90;;;;;;4898037;29;20214;-72
2022/12/27 13:13:04;;;;;;;2.83;1.00;;;9.00;99.90;;;;;;4897942;29;20657;-73
2022/12/27 13:15:43;;;;;;;4.27;1.00;;;9.00;99.90;;;;;;4897992;29;20217;-73
2022/12/27 13:18:21;;;;;;;4.20;0.70;;;9.00;99.90;;;;;;4897659;29;20723;-72
2022/12/27 13:21:02;;;;;;;6.93;0.87;;;9.00;99.90;;;;;;4897874;29;20214;-72
2022/12/27 13:23:43;;;;;;;4.47;0.50;;;9.00;99.90;;;;;;4898070;29;20288;-73
2022/12/27 13:26:19;;;;;;;1.87;0.97;;;9.00;99.90;;;;;;4897702;29;20670;-72
2022/12/27 13:28:59;;;;;;;1.70;0.70;;;9.00;99.90;;;;;;4897500;29;20237;-72
2022/12/27 13:31:39;;;;;;;4.10;0.90;;;9.00;99.90;;;;;;4897928;29;20210;-72
2022/12/27 13:34:19;;;;;;;4.17;0.80;;;9.00;99.90;;;;;;4897932;29;20220;-72
2022/12/27 13:37:02;;;;;;;5.13;1.00;;;9.00;99.90;;;;;;4897773;29;20206;-71
2022/12/27 13:39:42;;;;;;;4.50;0.80;;;9.00;99.90;;;;;;4897842;29;20206;-72
2022/12/27 13:42:33;;;;;;;3.90;0.80;;;9.00;99.90;;;;;;4897676;29;20248;-69
2022/12/27 13:45:07;;;;;;;1.33;0.70;;;9.00;99.90;;;;;;4897819;29;20228;-73
2022/12/27 13:47:48;;;;;;;1.40;0.63;;;9.00;99.90;;;;;;4900636;29;20237;-71
2022/12/27 13:50:46;;;;;;;2.70;0.77;;;8.90;99.90;;;;;;4901877;29;20218;-72
2022/12/27 13:53:38;;;;;;;1.93;0.60;;;9.00;99.90;;;;;;4901680;29;20665;-71
2022/12/27 13:56:14;;;;;;;1.40;0.63;;;8.90;99.90;;;;;;4901820;29;20210;-72
2022/12/27 13:58:57;;;;;;;3.70;0.60;;;8.90;99.90;;;;;;4901375;29;20237;-70
2022/12/27 14:01:51;;;;;;;4.77;0.93;;;9.00;99.90;;;;;;4901091;29;20229;-71
2022/12/27 14:04:46;;;;;;;2.50;0.83;;;9.00;99.90;;;;;;4901161;29;20297;-72
2022/12/27 14:07:34;;;;;;;2.77;0.73;;;9.10;99.90;;;;;;4901478;29;20241;-71
2022/12/27 14:10:15;;;;;;;4.77;0.97;;;9.30;99.90;;;;;;4901289;29;20234;-71
2022/12/27 14:12:56;;;;;;;6.93;1.07;;;9.20;99.90;;;;;;4901123;29;20298;-72
2022/12/27 14:15:28;;;;;;;6.20;0.80;;;9.20;99.90;;;;;;4901219;29;20301;-72
2022/12/27 14:18:15;;;;;;;2.70;1.10;;;9.10;99.90;;;;;;4901166;29;20294;-72
2022/12/27 14:21:00;;;;;;;2.77;0.70;;;9.10;99.90;;;;;;4901199;29;20363;-71
2022/12/27 14:23:49;;;;;;;4.47;1.03;;;9.10;99.90;;;;;;4901205;29;20214;-74
2022/12/27 14:26:55;;;;;;;2.50;0.70;;;9.10;99.90;;;;;;4901177;29;20237;-72
2022/12/27 14:30:00;;;;;;;1.00;0.60;;;9.10;99.90;;;;;;4896083;29;20214;-72
2022/12/27 14:33:03;;;;;;;2.93;0.90;;;9.00;99.90;;;;;;4900727;29;20206;-72
2022/12/27 14:35:51;;;;;;;1.30;0.60;;;8.90;99.90;;;;;;4900478;29;20581;-72
2022/12/27 14:38:49;;;;;;;3.60;0.80;;;8.90;99.90;;;;;;4900719;29;20241;-71
2022/12/27 14:41:49;;;;;;;2.40;0.73;;;8.80;99.90;;;;;;4900577;29;20206;-72
2022/12/27 14:44:48;;;;;;;2.13;1.07;;;8.70;99.90;;;;;;4869144;29;20214;-73
2022/12/27 14:47:51;;;;;;;1.80;0.50;;;8.60;99.90;;;;;;4900522;29;20257;-71
2022/12/27 14:50:48;;;;;;;2.47;0.50;;;8.60;99.90;;;;;;4900905;29;20217;-71
2022/12/27 14:53:53;;;;;;;0.63;0.50;;;8.60;99.90;;;;;;4900595;29;20210;-72
2022/12/27 14:56:31;;;;;;;4.13;1.00;;;8.60;99.90;;;;;;4900263;29;20217;-70
2022/12/27 14:59:10;;;;;;;3.20;0.50;;;8.60;99.90;;;;;;4899505;29;20237;-71
2022/12/27 15:01:51;;;;;;;1.50;0.53;;;8.50;99.90;;;;;;4900647;29;20593;-71
2022/12/27 15:04:57;;;;;;;2.37;1.00;;;8.50;99.90;;;;;;4900235;29;20214;-72
2022/12/27 15:07:57;;;;;;;4.70;0.90;;;8.50;99.90;;;;;;4842230;29;20240;-68
2022/12/27 15:10:50;;;;;;;1.90;0.50;;;8.40;99.90;;;;;;4899365;29;20546;-70
2022/12/27 15:13:29;;;;;;;4.20;1.03;;;8.40;99.90;;;;;;4899609;29;20218;-71
2022/12/27 15:16:06;;;;;;;3.37;0.90;;;8.30;99.90;;;;;;4899736;29;20214;-72
2022/12/27 15:18:48;;;;;;;3.17;1.00;;;8.30;99.90;;;;;;4899457;29;20325;-71
2022/12/27 15:21:33;;;;;;;2.43;0.90;;;8.30;99.90;;;;;;4899717;29;20696;-69
2022/12/27 15:24:08;;;;;;;3.60;1.13;;;8.20;99.90;;;;;;4899918;29;20220;-72
2022/12/27 15:26:46;;;;;;;3.67;1.33;;;8.20;99.90;;;;;;4899695;29;20210;-71
2022/12/27 15:29:25;;;;;;;4.40;0.90;;;8.10;99.90;;;;;;4899576;29;20248;-72
2022/12/27 15:32:04;;;;;;;1.23;0.67;;;8.10;99.90;;;;;;4899495;29;20222;-73
2022/12/27 15:34:41;;;;;;;3.03;0.97;;;8.10;99.90;;;;;;4899434;29;20658;-72
2022/12/27 15:37:52;;;;;;;4.40;0.90;;;8.00;99.90;;;;;;4899300;29;20226;-71
2022/12/27 15:40:55;;;;;;;2.30;0.93;;;8.00;99.90;;;;;;4899332;29;20237;-73
2022/12/27 15:43:35;;;;;;;5.07;1.33;;;8.00;99.90;;;;;;4899663;29;20206;-72
2022/12/27 15:46:18;;;;;;;3.43;1.00;;;7.90;99.90;;;;;;4899151;29;20206;-72
2022/12/27 15:49:02;;;;;;;3.07;1.03;;;7.90;99.90;;;;;;4899163;29;20238;-72
2022/12/27 15:51:34;;;;;;;2.30;0.80;;;7.90;99.90;;;;;;4899392;29;20555;-70
2022/12/27 15:54:28;;;;;;;2.07;1.03;;;7.80;99.90;;;;;;4899444;29;20210;-72
2022/12/27 15:57:24;;;;;;;2.00;0.90;;;7.90;99.90;;;;;;4898936;29;20218;-73
2022/12/27 15:59:53;;;;;;;5.97;1.10;;;7.80;99.90;;;;;;4889609;29;20211;-72
2022/12/27 16:02:36;;;;;;;3.53;1.00;;;7.80;99.90;;;;;;4898777;29;20210;-71
2022/12/27 16:05:42;;;;;;;1.90;0.90;;;7.70;99.90;;;;;;4898672;29;20216;-72
2022/12/27 16:08:26;;;;;;;2.40;0.70;;;7.70;99.90;;;;;;4898679;29;20233;-72
2022/12/27 16:10:53;;;;;;;3.53;1.07;;;7.60;99.90;;;;;;4897564;29;20218;-71
2022/12/27 16:13:36;;;;;;;3.07;1.00;;;7.60;99.90;;;;;;4898362;29;20211;-68
2022/12/27 16:16:04;;;;;;;4.20;1.30;;;7.50;99.90;;;;;;4898671;29;20221;-72
2022/12/27 16:18:59;;;;;;;5.47;1.20;;;7.50;99.90;;;;;;4898759;29;20235;-71
2022/12/27 16:21:35;;;;;;;7.53;1.20;;;7.50;99.90;;;;;;4893262;29;20210;-71
2022/12/27 16:24:05;;;;;;;3.90;0.90;;;7.40;99.90;;;;;;4899095;29;20220;-71
2022/12/27 16:26:35;;;;;;;3.33;1.60;;;7.40;99.90;;;;;;4898737;29;20219;-73
2022/12/27 16:29:05;;;;;;;2.90;1.20;;;7.30;99.90;;;;;;4898612;29;20340;-72
2022/12/27 16:31:33;;;;;;;5.47;0.97;;;7.30;99.90;;;;;;4898768;29;20207;-70
2022/12/27 16:34:13;;;;;;;4.20;1.13;;;7.20;99.90;;;;;;4898391;29;20232;-71
2022/12/27 16:36:45;;;;;;;3.17;0.80;;;7.20;99.90;;;;;;4898718;29;20214;-72
2022/12/27 16:39:31;;;;;;;4.23;1.07;;;7.20;99.90;;;;;;4898694;29;20211;-71
2022/12/27 16:42:04;;;;;;;5.43;1.30;;;7.10;99.90;;;;;;4898883;29;20207;-71
2022/12/27 16:44:48;;;;;;;3.00;1.00;;;7.00;99.90;;;;;;4898655;29;20233;-71
2022/12/27 16:47:34;;;;;;;1.60;0.90;;;7.00;99.90;;;;;;4898344;29;20230;-70
2022/12/27 16:50:26;;;;;;;5.63;1.37;;;7.00;99.90;;;;;;4898498;29;20222;-71
2022/12/27 16:53:02;;;;;;;8.23;1.53;;;6.90;99.90;;;;;;4898069;29;20233;-73
2022/12/27 16:55:48;;;;;;;3.00;1.53;;;6.90;99.90;;;;;;4898235;29;20210;-73
2022/12/27 16:58:31;;;;;;;8.13;1.97;;;6.80;99.90;;;;;;4898237;29;20240;-74
2022/12/27 17:00:59;;;;;;;4.30;1.27;;;6.70;99.90;;;;;;4898391;29;20229;-70
2022/12/27 17:03:46;;;;;;;3.57;1.57;;;6.80;99.90;;;;;;4897838;29;20236;-73
2022/12/27 17:06:50;;;;;;;6.67;1.67;;;6.70;99.90;;;;;;4897882;29;20570;-72
2022/12/27 17:09:44;;;;;;;4.40;1.90;;;6.70;99.90;;;;;;4897925;29;20234;-73
2022/12/27 17:12:23;;;;;;;5.40;1.77;;;6.70;99.90;;;;;;4898384;29;20241;-72
2022/12/27 17:14:57;;;;;;;3.87;1.50;;;6.70;99.90;;;;;;4898392;29;20210;-71
2022/12/27 17:17:25;;;;;;;6.90;1.30;;;6.70;99.90;;;;;;4898182;29;20230;-72
2022/12/27 17:19:59;;;;;;;6.53;1.77;;;6.70;99.90;;;;;;4897945;29;20218;-73
2022/12/27 17:22:27;;;;;;;5.93;1.83;;;6.70;99.90;;;;;;4897870;29;20301;-73
2022/12/27 17:24:58;;;;;;;3.63;1.57;;;6.60;99.90;;;;;;4898247;29;20301;-70
2022/12/27 17:27:37;;;;;;;5.57;1.30;;;6.60;99.90;;;;;;4897822;29;20237;-71
2022/12/27 17:30:16;;;;;;;6.97;1.70;;;6.70;99.90;;;;;;4897674;29;20234;-71
2022/12/27 17:33:06;;;;;;;4.43;2.03;;;6.70;99.90;;;;;;4897564;29;20221;-71
2022/12/27 17:35:40;;;;;;;4.50;2.63;;;6.60;99.90;;;;;;4895649;29;20586;-72
2022/12/27 17:38:20;;;;;;;7.47;1.83;;;6.50;99.90;;;;;;4897684;29;20230;-72
2022/12/27 17:40:57;;;;;;;4.30;1.97;;;6.60;99.90;;;;;;4897546;29;20688;-72
2022/12/27 17:46:30;;;;;;;9.23;1.50;;;6.60;99.90;;;;;;4897777;29;20214;-73
2022/12/27 17:48:58;;;;;;;4.47;1.90;;;6.50;99.90;;;;;;4897601;29;20716;-70
2022/12/27 17:51:28;;;;;;;4.63;1.77;;;6.50;99.90;;;;;;4897307;29;20670;-70
2022/12/27 17:59:34;;;;;;;10.10;2.50;;;6.30;99.90;;;;;;4897021;29;20258;-72
2022/12/27 18:02:05;;;;;;;3.53;1.60;;;6.40;99.90;;;;;;4883030;29;20326;-74
2022/12/27 18:04:36;;;;;;;3.30;1.90;;;6.30;99.90;;;;;;4877504;29;20211;-73
2022/12/27 18:07:05;;;;;;;9.27;2.20;;;6.40;99.90;;;;;;4877652;29;20322;-74
2022/12/27 18:09:36;;;;;;;10.60;2.43;;;6.30;99.90;;;;;;4877394;29;20242;-73
2022/12/27 18:12:11;;;;;;;5.43;2.50;;;6.30;99.90;;;;;;4877017;29;20222;-75
2022/12/27 18:14:38;;;;;;;5.87;2.60;;;6.30;99.90;;;;;;4877340;29;20225;-73
2022/12/27 18:17:05;;;;;;;4.30;1.60;;;6.30;99.90;;;;;;4876754;29;20266;-73
2022/12/27 18:19:32;;;;;;;3.10;1.47;;;6.30;99.90;;;;;;4877499;29;20222;-71
2022/12/27 18:22:02;;;;;;;6.63;2.20;;;6.30;99.90;;;;;;4873520;29;20214;-73
2022/12/27 18:24:31;;;;;;;10.07;2.07;;;6.30;99.90;;;;;;4877654;29;20235;-73
2022/12/27 18:27:05;;;;;;;2.10;1.50;;;6.30;99.90;;;;;;4883172;29;20231;-73
2022/12/27 18:29:32;;;;;;;8.43;1.93;;;6.20;99.90;;;;;;4895959;29;20242;-73
2022/12/27 18:32:04;;;;;;;8.80;2.03;;;6.20;99.90;;;;;;4885303;29;20211;-73
2022/12/27 18:34:38;;;;;;;3.93;1.77;;;6.20;99.90;;;;;;4879821;29;20206;-73
2022/12/27 18:37:09;;;;;;;5.60;1.93;;;6.20;99.90;;;;;;4881058;29;20230;-71
2022/12/27 18:39:40;;;;;;;3.07;1.20;;;6.20;99.90;;;;;;4881887;29;20558;-71
2022/12/27 18:42:16;;;;;;;4.13;1.20;;;6.20;99.90;;;;;;4881699;29;20687;-72
2022/12/27 18:44:47;;;;;;;7.00;1.63;;;6.20;99.90;;;;;;4881736;29;20214;-71
2022/12/27 18:47:20;;;;;;;3.77;1.67;;;6.20;99.90;;;;;;4881459;29;20235;-69
2022/12/27 18:49:52;;;;;;;2.73;1.77;;;6.20;99.90;;;;;;4881647;29;20243;-72
2022/12/27 18:52:23;;;;;;;3.87;1.03;;;6.20;99.90;;;;;;4881605;29;20221;-72
2022/12/27 18:54:51;;;;;;;2.83;0.90;;;6.10;99.90;;;;;;4881459;29;20211;-71
2022/12/27 18:57:31;;;;;;;4.10;1.00;;;6.10;99.90;;;;;;4881710;29;20241;-72
2022/12/27 19:00:01;;;;;;;6.87;1.10;;;6.10;99.90;;;;;;4881547;29;20631;-71
2022/12/27 19:02:34;;;;;;;6.43;1.47;;;6.10;99.90;;;;;;4881498;29;20207;-72
2022/12/27 19:05:23;;;;;;;2.97;1.33;;;6.10;99.90;;;;;;4881435;29;20232;-71
2022/12/27 19:07:56;;;;;;;2.93;1.47;;;6.10;99.90;;;;;;4881263;29;20231;-72
2022/12/27 19:10:25;;;;;;;16.50;5.47;;;6.10;99.90;;;;;;4880029;29;20594;-73
2022/12/27 19:12:55;;;;;;;5.93;1.70;;;6.10;99.90;;;;;;4879628;29;20217;-72
2022/12/27 19:15:26;;;;;;;5.47;1.43;;;6.10;99.90;;;;;;4880216;29;20237;-72
2022/12/27 19:17:58;;;;;;;6.87;1.40;;;6.10;99.90;;;;;;4880188;29;20242;-71
2022/12/27 19:20:28;;;;;;;3.13;1.60;;;6.00;99.90;;;;;;4881129;29;20211;-74
2022/12/27 19:22:56;;;;;;;2.27;1.20;;;6.00;99.90;;;;;;4880928;29;20221;-73
2022/12/27 19:25:25;;;;;;;3.57;1.20;;;6.00;99.90;;;;;;4880847;29;20215;-69
2022/12/27 19:28:20;;;;;;;7.37;1.40;;;6.00;99.90;;;;;;4881082;29;20235;-70
2022/12/27 19:31:03;;;;;;;3.10;1.60;;;6.00;99.90;;;;;;4881146;29;20238;-75
2022/12/27 19:33:33;;;;;;;6.17;1.57;;;6.00;99.90;;;;;;4881221;29;20225;-74
2022/12/27 19:36:01;;;;;;;4.93;1.17;;;6.00;99.90;;;;;;4881104;29;20215;-74
2022/12/27 19:38:31;;;;;;;5.53;1.30;;;6.00;99.90;;;;;;4880434;29;20241;-74
2022/12/27 19:41:02;;;;;;;2.17;1.40;;;6.00;99.90;;;;;;4879749;29;20211;-75
2022/12/27 19:43:36;;;;;;;3.70;1.60;;;6.00;99.90;;;;;;4880252;29;20216;-71
2022/12/27 19:46:03;;;;;;;4.97;1.50;;;6.00;99.90;;;;;;4880613;29;20685;-73
2022/12/27 19:48:30;;;;;;;12.37;1.77;;;6.10;99.90;;;;;;4880972;29;20598;-74
2022/12/27 19:50:58;;;;;;;5.83;1.83;;;6.10;99.90;;;;;;4880969;29;20237;-75
2022/12/27 19:53:30;;;;;;;3.87;1.73;;;6.20;99.90;;;;;;4881175;29;20211;-74
2022/12/27 19:55:57;;;;;;;4.00;1.60;;;6.20;99.90;;;;;;4881022;29;20552;-75
2022/12/27 19:58:27;;;;;;;2.20;1.07;;;6.20;99.90;;;;;;4880808;29;20264;-75
2022/12/27 20:00:56;;;;;;;3.03;1.70;;;6.30;99.90;;;;;;4881002;29;20270;-74
2022/12/27 20:03:23;;;;;;;2.37;1.43;;;6.30;99.90;;;;;;4880799;29;20215;-75
2022/12/27 20:05:50;;;;;;;5.23;1.57;;;6.20;99.90;;;;;;4881115;29;20215;-75
2022/12/27 20:08:24;;;;;;;2.90;1.33;;;6.20;99.90;;;;;;4882912;29;20246;-73
2022/12/27 20:10:51;;;;;;;8.97;3.00;;;6.20;99.90;;;;;;4882778;29;20708;-75
2022/12/27 20:13:18;;;;;;;5.80;2.10;;;6.20;99.90;;;;;;4882903;29;20686;-73
2022/12/27 20:15:45;;;;;;;5.63;2.17;;;6.30;99.90;;;;;;4883174;29;20304;-73
2022/12/27 20:18:13;;;;;;;5.83;1.60;;;6.30;99.90;;;;;;4882426;29;20345;-75
2022/12/27 20:20:40;;;;;;;1.90;1.30;;;6.30;99.90;;;;;;4882528;29;20215;-74
2022/12/27 20:23:07;;;;;;;6.93;1.80;;;6.30;99.90;;;;;;4880993;29;20211;-72
2022/12/27 20:25:34;;;;;;;2.57;1.37;;;6.30;99.90;;;;;;4880095;29;20222;-74
2022/12/27 20:28:01;;;;;;;3.63;1.40;;;6.30;99.90;;;;;;4880761;29;20237;-74
2022/12/27 20:30:29;;;;;;;5.13;1.73;;;6.30;99.90;;;;;;4880427;29;20235;-75
2022/12/27 20:32:56;;;;;;;14.17;1.93;;;6.40;99.90;;;;;;4880145;29;20555;-75
2022/12/27 20:35:24;;;;;;;4.70;1.57;;;6.50;99.90;;;;;;4880136;29;20215;-73
2022/12/27 20:37:51;;;;;;;3.10;1.30;;;6.50;99.90;;;;;;4879819;29;20231;-74
2022/12/27 20:40:18;;;;;;;1.00;0.60;;;6.50;99.90;;;;;;4880374;29;20214;-73
2022/12/27 20:42:45;;;;;;;4.07;1.10;;;6.60;99.90;;;;;;4880324;29;20222;-74
2022/12/27 20:45:12;;;;;;;4.07;1.10;;;6.70;99.90;;;;;;4880335;29;20211;-75
2022/12/27 20:47:39;;;;;;;5.43;1.90;;;6.70;99.90;;;;;;4880087;29;20238;-75
2022/12/27 20:50:07;;;;;;;3.60;0.70;;;6.70;99.90;;;;;;4879939;29;20235;-74
2022/12/27 20:52:37;;;;;;;5.83;1.77;;;6.70;99.90;;;;;;4880560;29;20211;-74
2022/12/27 20:55:05;;;;;;;3.70;1.30;;;6.70;99.90;;;;;;4879852;29;20570;-70
2022/12/27 20:57:31;;;;;;;3.40;1.40;;;6.70;99.90;;;;;;4879498;29;20235;-74
2022/12/27 20:59:58;;;;;;;2.30;1.10;;;6.80;99.90;;;;;;4880442;29;20215;-74
2022/12/27 21:02:25;;;;;;;4.37;1.07;;;6.80;99.90;;;;;;4879495;29;20215;-72
2022/12/27 21:04:52;;;;;;;6.20;1.07;;;6.80;99.90;;;;;;4879671;29;20249;-75
2022/12/27 21:07:19;;;;;;;6.80;1.33;;;6.80;99.90;;;;;;4879251;29;20644;-75
2022/12/27 21:09:47;;;;;;;4.83;1.50;;;6.90;99.90;;;;;;4879291;29;20239;-72
2022/12/27 21:12:14;;;;;;;3.67;1.20;;;6.90;99.90;;;;;;4879990;29;20216;-69
2022/12/27 21:14:41;;;;;;;3.50;0.83;;;7.00;99.90;;;;;;4879465;29;20217;-75
2022/12/27 21:17:07;;;;;;;5.07;1.10;;;6.90;99.90;;;;;;4879342;29;20257;-69
2022/12/27 21:19:34;;;;;;;4.70;1.30;;;6.90;99.90;;;;;;4879544;29;20222;-79
2022/12/27 21:22:01;;;;;;;7.70;1.67;;;6.80;99.90;;;;;;4879480;29;20210;-74
2022/12/27 21:24:28;;;;;;;5.20;1.10;;;6.80;99.90;;;;;;4879664;29;20301;-71
2022/12/27 21:26:56;;;;;;;6.77;1.37;;;6.90;99.90;;;;;;4879089;29;20298;-75
2022/12/27 21:29:23;;;;;;;7.53;1.20;;;6.90;99.90;;;;;;4879431;29;20238;-71
2022/12/27 21:31:50;;;;;;;1.43;0.80;;;7.00;99.90;;;;;;4879234;29;20210;-70
2022/12/27 21:34:17;;;;;;;2.13;0.90;;;6.90;99.90;;;;;;4879252;29;20218;-73
2022/12/27 21:36:44;;;;;;;5.77;1.00;;;6.90;99.90;;;;;;4879445;29;20219;-72
2022/12/27 21:39:11;;;;;;;4.90;1.03;;;6.90;99.90;;;;;;4878931;29;20218;-73
2022/12/27 21:41:40;;;;;;;1.10;0.80;;;7.00;99.90;;;;;;4879082;29;20226;-73
2022/12/27 21:44:08;;;;;;;3.37;1.03;;;7.00;99.90;;;;;;4878677;29;20211;-72
2022/12/27 21:46:37;;;;;;;7.80;1.97;;;7.00;99.90;;;;;;4878114;29;20215;-72
2022/12/27 21:49:06;;;;;;;3.90;1.33;;;7.10;99.90;;;;;;4878877;29;20294;-71
2022/12/27 21:51:35;;;;;;;3.00;1.10;;;7.20;99.90;;;;;;4878820;29;20242;-71
2022/12/27 21:54:02;;;;;;;2.30;1.47;;;7.20;99.90;;;;;;4879254;29;20211;-68
2022/12/27 21:56:30;;;;;;;1.77;0.90;;;7.30;99.90;;;;;;4879244;29;20221;-69
2022/12/27 21:58:58;;;;;;;3.10;0.90;;;7.30;99.90;;;;;;4879118;29;20231;-74
2022/12/27 22:01:31;;;;;;;5.60;1.03;;;7.30;99.90;;;;;;4878730;29;20694;-72
2022/12/27 22:03:59;;;;;;;2.37;1.23;;;7.30;99.90;;;;;;4878935;29;20242;-71
2022/12/27 22:06:28;;;;;;;7.13;1.00;;;7.30;99.90;;;;;;4879219;29;20219;-73
2022/12/27 22:08:57;;;;;;;1.50;1.10;;;7.40;99.90;;;;;;4882614;29;20728;-69
2022/12/27 22:11:25;;;;;;;1.33;0.97;;;7.40;99.90;;;;;;4882787;29;20609;-72
2022/12/27 22:13:52;;;;;;;2.10;1.10;;;7.50;99.90;;;;;;4882362;29;20573;-73
